createdAt,value
2019-01-23T00:02:22.001Z,-1.20
2019-01-23T00:04:56.979Z,-1.20
2019-01-23T00:07:30.625Z,-1.20
2019-01-23T00:10:04.223Z,-1.20
2019-01-23T00:12:37.809Z,-1.20
2019-01-23T00:15:11.369Z,-1.30
2019-01-23T00:17:44.901Z,-1.30
2019-01-23T00:20:18.498Z,-1.30
2019-01-23T00:22:52.109Z,-1.30
2019-01-23T00:25:25.787Z,-1.30
2019-01-23T00:27:59.399Z,-1.30
2019-01-23T00:30:32.985Z,-1.30
2019-01-23T00:33:07.319Z,-1.30
2019-01-23T00:35:40.919Z,-1.30
2019-01-23T00:38:14.591Z,-1.30
2019-01-23T00:40:48.376Z,-1.20
2019-01-23T00:43:22.046Z,-1.20
2019-01-23T00:45:55.662Z,-1.20
2019-01-23T00:48:29.246Z,-1.20
2019-01-23T00:51:03.555Z,-1.30
2019-01-23T00:53:37.176Z,-1.30
2019-01-23T00:56:10.847Z,-1.40
2019-01-23T00:58:49.164Z,-1.40
2019-01-23T01:01:19.598Z,-1.40
2019-01-23T01:03:53.940Z,-1.30
2019-01-23T01:06:27.445Z,-1.30
2019-01-23T01:09:01.087Z,-1.20
2019-01-23T01:11:34.843Z,-1.30
2019-01-23T01:14:08.523Z,-1.40
2019-01-23T01:16:42.117Z,-1.40
2019-01-23T01:19:15.937Z,-1.40
2019-01-23T01:21:50.450Z,-1.40
2019-01-23T01:24:24.099Z,-1.40
2019-01-23T01:26:57.780Z,-1.40
2019-01-23T01:29:32.091Z,-1.30
2019-01-23T01:32:05.691Z,-1.40
2019-01-23T01:34:39.328Z,-1.40
2019-01-23T01:37:13.179Z,-1.40
2019-01-23T01:39:46.986Z,-1.40
2019-01-23T01:42:21.336Z,-1.40
2019-01-23T01:44:55.122Z,-1.40
2019-01-23T01:47:29.660Z,-1.30
2019-01-23T01:50:03.264Z,-1.40
2019-01-23T01:52:36.872Z,-1.30
2019-01-23T01:55:10.576Z,-1.40
2019-01-23T01:57:44.299Z,-1.50
2019-01-23T02:00:17.892Z,-1.60
2019-01-23T02:02:52.467Z,-1.60
2019-01-23T02:05:26.980Z,-1.60
2019-01-23T02:08:00.482Z,-1.60
2019-01-23T02:10:34.033Z,-1.60
2019-01-23T02:13:08.327Z,-1.80
2019-01-23T02:15:41.948Z,-1.80
2019-01-23T02:18:16.533Z,-1.80
2019-01-23T02:20:50.955Z,-1.80
2019-01-23T02:23:24.791Z,-1.90
2019-01-23T02:25:59.091Z,-2.00
2019-01-23T02:28:33.594Z,-2.00
2019-01-23T02:31:07.371Z,-2.00
2019-01-23T02:33:40.913Z,-2.10
2019-01-23T02:36:14.536Z,-2.10
2019-01-23T02:38:48.100Z,-2.10
2019-01-23T02:41:21.712Z,-2.30
2019-01-23T02:43:55.501Z,-2.30
2019-01-23T02:46:29.151Z,-2.30
2019-01-23T02:49:02.706Z,-2.40
2019-01-23T02:51:36.366Z,-2.50
2019-01-23T02:54:09.950Z,-2.40
2019-01-23T02:56:43.508Z,-2.50
2019-01-23T02:59:17.547Z,-2.50
2019-01-23T03:01:50.828Z,-2.60
2019-01-23T03:04:24.450Z,-2.60
2019-01-23T03:06:58.219Z,-2.70
2019-01-23T03:09:31.839Z,-2.70
2019-01-23T03:12:05.434Z,-2.80
2019-01-23T03:14:38.985Z,-2.70
2019-01-23T03:17:12.530Z,-2.70
2019-01-23T03:19:46.152Z,-2.70
2019-01-23T03:22:20.655Z,-2.80
2019-01-23T03:24:54.266Z,-2.80
2019-01-23T03:27:27.847Z,-2.90
2019-01-23T03:30:01.421Z,-3.00
2019-01-23T03:32:35.222Z,-3.00
2019-01-23T03:35:08.905Z,-3.00
2019-01-23T03:37:42.715Z,-3.00
2019-01-23T03:40:17.010Z,-3.10
2019-01-23T03:42:50.639Z,-3.10
2019-01-23T03:45:24.292Z,-3.20
2019-01-23T03:47:57.886Z,-3.20
2019-01-23T03:50:31.488Z,-3.30
2019-01-23T03:53:05.130Z,-3.30
2019-01-23T03:55:38.691Z,-3.30
2019-01-23T03:58:12.336Z,-3.30
2019-01-23T04:00:45.957Z,-3.30
2019-01-23T04:03:19.647Z,-3.30
2019-01-23T04:05:54.069Z,-3.30
2019-01-23T04:08:27.796Z,-3.30
2019-01-23T04:11:01.443Z,-3.30
2019-01-23T04:13:35.049Z,-3.40
2019-01-23T04:16:08.639Z,-3.40
2019-01-23T04:18:42.229Z,-3.40
2019-01-23T04:21:15.997Z,-3.50
2019-01-23T04:23:49.591Z,-3.50
2019-01-23T04:26:24.078Z,-3.40
2019-01-23T04:28:57.770Z,-3.40
2019-01-23T04:31:31.390Z,-3.40
2019-01-23T04:34:04.936Z,-3.40
2019-01-23T04:36:38.543Z,-3.30
2019-01-23T04:39:12.112Z,-3.30
2019-01-23T04:41:45.946Z,-3.30
2019-01-23T04:44:19.755Z,-3.30
2019-01-23T04:46:54.098Z,-3.30
2019-01-23T04:49:27.747Z,-3.30
2019-01-23T04:52:01.310Z,-3.30
2019-01-23T04:54:35.066Z,-3.40
2019-01-23T04:57:09.565Z,-3.30
2019-01-23T04:59:46.987Z,-3.40
2019-01-23T05:02:17.661Z,-3.30
2019-01-23T05:04:51.183Z,-3.30
2019-01-23T05:07:25.520Z,-3.30
2019-01-23T05:09:59.060Z,-3.30
2019-01-23T05:12:33.427Z,-3.30
2019-01-23T05:15:07.171Z,-3.30
2019-01-23T05:17:40.939Z,-3.40
2019-01-23T05:20:14.721Z,-3.50
2019-01-23T05:22:49.055Z,-3.50
2019-01-23T05:25:22.768Z,-3.60
2019-01-23T05:27:56.348Z,-3.50
2019-01-23T05:30:30.161Z,-3.50
2019-01-23T05:33:03.761Z,-3.40
2019-01-23T05:35:37.352Z,-3.40
2019-01-23T05:38:11.210Z,-3.40
2019-01-23T05:40:44.996Z,-3.40
2019-01-23T05:43:18.541Z,-3.40
2019-01-23T05:45:52.177Z,-3.40
2019-01-23T05:48:26.635Z,-3.40
2019-01-23T05:51:01.130Z,-3.40
2019-01-23T05:53:34.914Z,-3.40
2019-01-23T05:56:09.468Z,-3.40
2019-01-23T05:58:43.154Z,-3.40
2019-01-23T06:01:16.814Z,-3.40
2019-01-23T06:03:50.496Z,-3.40
2019-01-23T06:06:24.109Z,-3.40
2019-01-23T06:08:57.766Z,-3.40
2019-01-23T06:11:31.386Z,-3.40
2019-01-23T06:14:05.791Z,-3.50
2019-01-23T06:16:39.522Z,-3.50
2019-01-23T06:19:13.158Z,-3.50
2019-01-23T06:21:47.141Z,-3.50
2019-01-23T06:24:20.882Z,-3.50
2019-01-23T06:26:55.323Z,-3.40
2019-01-23T06:29:29.014Z,-3.40
2019-01-23T06:32:02.653Z,-3.20
2019-01-23T06:34:36.470Z,-3.10
2019-01-23T06:37:10.175Z,-3.10
2019-01-23T06:39:44.689Z,-3.40
2019-01-23T06:42:18.502Z,-3.40
2019-01-23T06:44:52.256Z,-3.40
2019-01-23T06:47:25.874Z,-3.40
2019-01-23T06:50:00.414Z,-3.40
2019-01-23T06:52:33.995Z,-3.50
2019-01-23T06:55:08.400Z,-3.50
2019-01-23T06:57:41.339Z,-3.50
2019-01-23T07:00:17.238Z,-3.50
2019-01-23T07:02:48.884Z,-3.50
2019-01-23T07:05:22.657Z,-3.50
2019-01-23T07:07:56.574Z,-3.50
2019-01-23T07:10:30.273Z,-3.50
2019-01-23T07:13:03.975Z,-3.40
2019-01-23T07:15:37.740Z,-3.30
2019-01-23T07:18:11.377Z,-3.30
2019-01-23T07:20:45.158Z,-3.30
2019-01-23T07:23:18.746Z,-3.30
2019-01-23T07:25:53.309Z,-3.30
2019-01-23T07:28:26.973Z,-3.30
2019-01-23T07:31:00.771Z,-3.30
2019-01-23T07:33:34.474Z,-3.20
2019-01-23T07:36:08.147Z,-3.30
2019-01-23T07:38:41.841Z,-3.40
2019-01-23T07:41:15.616Z,-3.30
2019-01-23T07:43:49.425Z,-3.20
2019-01-23T07:46:23.213Z,-3.30
2019-01-23T07:48:56.826Z,-3.30
2019-01-23T07:51:30.546Z,-3.10
2019-01-23T07:54:04.356Z,-3.00
2019-01-23T07:56:38.203Z,-2.90
2019-01-23T07:59:11.996Z,-2.80
2019-01-23T08:01:46.579Z,-2.90
2019-01-23T08:04:20.203Z,-2.90
2019-01-23T08:06:53.882Z,-2.70
2019-01-23T08:09:27.668Z,-2.60
2019-01-23T08:12:02.191Z,-2.50
2019-01-23T08:14:35.879Z,-2.60
2019-01-23T08:17:09.651Z,-1.90
2019-01-23T08:19:43.558Z,-1.20
2019-01-23T08:22:17.342Z,-0.50
2019-01-23T08:24:51.730Z,0.20
2019-01-23T08:27:25.515Z,0.20
2019-01-23T08:29:59.124Z,0.30
2019-01-23T08:32:32.923Z,-0.20
2019-01-23T08:35:06.596Z,-0.50
2019-01-23T08:37:40.313Z,-0.60
2019-01-23T08:40:14.966Z,-0.70
2019-01-23T08:42:49.466Z,-0.80
2019-01-23T08:45:23.082Z,-1.00
2019-01-23T08:47:56.633Z,-1.50
2019-01-23T08:50:35.491Z,-1.60
2019-01-23T08:53:09.937Z,-1.50
2019-01-23T08:55:44.295Z,-1.10
2019-01-23T08:58:18.015Z,-1.20
2019-01-23T09:00:51.595Z,-0.50
2019-01-23T09:03:25.383Z,0.40
2019-01-23T09:05:59.028Z,1.30
2019-01-23T09:08:37.652Z,2.30
2019-01-23T09:11:06.167Z,3.50
2019-01-23T09:13:39.725Z,2.80
2019-01-23T09:16:13.296Z,2.60
2019-01-23T09:18:46.944Z,3.90
2019-01-23T09:21:21.301Z,4.90
2019-01-23T09:23:55.844Z,2.70
2019-01-23T09:26:30.458Z,0.70
2019-01-23T09:29:04.187Z,0.60
2019-01-23T09:31:41.307Z,0.30
2019-01-23T09:34:15.791Z,2.80
2019-01-23T09:36:56.947Z,3.40
2019-01-23T09:39:35.376Z,3.40
2019-01-23T09:42:09.691Z,6.50
2019-01-23T09:45:08.950Z,6.50
2019-01-23T09:47:45.742Z,6.20
2019-01-23T09:50:34.003Z,6.20
2019-01-23T09:53:15.564Z,6.70
2019-01-23T09:55:49.114Z,7.40
2019-01-23T09:58:23.478Z,7.40
2019-01-23T10:00:59.911Z,7.40
2019-01-23T10:03:31.760Z,6.90
2019-01-23T10:06:05.341Z,6.90
2019-01-23T10:08:39.126Z,7.40
2019-01-23T10:11:13.722Z,9.40
2019-01-23T10:13:47.278Z,9.40
2019-01-23T10:16:21.011Z,9.90
2019-01-23T10:18:56.150Z,11.20
2019-01-23T10:21:28.421Z,12.10
2019-01-23T10:24:01.964Z,13.90
2019-01-23T10:26:35.633Z,14.70
2019-01-23T10:29:09.324Z,13.00
2019-01-23T10:31:42.966Z,12.20
2019-01-23T10:34:16.735Z,12.50
2019-01-23T10:36:50.416Z,12.10
2019-01-23T10:39:24.243Z,10.80
2019-01-23T10:41:58.744Z,11.00
2019-01-23T10:44:32.459Z,11.00
2019-01-23T10:47:06.002Z,9.80
2019-01-23T10:49:39.744Z,10.80
2019-01-23T10:52:13.473Z,9.50
2019-01-23T10:54:47.275Z,11.20
2019-01-23T10:57:20.884Z,13.30
2019-01-23T10:59:54.688Z,12.10
2019-01-23T11:02:29.103Z,11.30
2019-01-23T11:05:02.780Z,10.00
2019-01-23T11:07:36.585Z,10.80
2019-01-23T11:10:10.233Z,11.60
2019-01-23T11:12:44.032Z,10.40
2019-01-23T11:15:17.629Z,11.20
2019-01-23T11:17:51.508Z,11.50
2019-01-23T11:20:26.057Z,12.30
2019-01-23T11:23:00.495Z,11.30
2019-01-23T11:25:34.222Z,11.30
2019-01-23T11:28:08.162Z,9.30
2019-01-23T11:30:41.891Z,7.60
2019-01-23T11:33:15.697Z,6.00
2019-01-23T11:35:49.316Z,5.00
2019-01-23T11:38:23.929Z,4.70
2019-01-23T11:40:57.754Z,4.60
2019-01-23T11:43:32.382Z,4.50
2019-01-23T11:46:06.951Z,4.40
2019-01-23T11:48:40.725Z,4.30
2019-01-23T11:51:14.293Z,4.10
2019-01-23T11:53:48.106Z,3.70
2019-01-23T11:56:22.666Z,3.10
2019-01-23T11:58:56.405Z,3.10
2019-01-23T12:01:30.157Z,2.70
2019-01-23T12:04:03.988Z,2.20
2019-01-23T12:06:38.401Z,2.60
2019-01-23T12:09:12.966Z,2.80
2019-01-23T12:11:47.300Z,3.00
2019-01-23T12:14:20.878Z,3.00
2019-01-23T12:16:54.539Z,3.20
2019-01-23T12:19:28.181Z,3.20
2019-01-23T12:22:01.854Z,3.00
2019-01-23T12:24:35.456Z,2.80
2019-01-23T12:27:09.843Z,2.70
2019-01-23T12:29:43.469Z,2.70
2019-01-23T12:32:17.989Z,2.50
2019-01-23T12:34:52.417Z,2.20
2019-01-23T12:37:26.048Z,2.20
2019-01-23T12:39:59.835Z,2.00
2019-01-23T12:42:33.447Z,1.90
2019-01-23T12:45:18.233Z,1.90
2019-01-23T12:47:51.980Z,1.90
2019-01-23T12:50:25.760Z,1.70
2019-01-23T12:52:59.555Z,1.60
2019-01-23T12:55:33.387Z,1.70
2019-01-23T12:58:07.207Z,1.80
2019-01-23T13:00:41.787Z,1.70
2019-01-23T13:03:15.499Z,1.70
2019-01-23T13:05:49.291Z,1.70
2019-01-23T13:08:22.994Z,1.60
2019-01-23T13:10:56.802Z,1.50
2019-01-23T13:13:30.367Z,1.50
2019-01-23T13:16:04.081Z,1.50
2019-01-23T13:18:37.897Z,1.60
2019-01-23T13:21:12.535Z,1.70
2019-01-23T13:23:46.138Z,1.70
2019-01-23T13:26:19.678Z,1.80
2019-01-23T13:28:53.578Z,1.80
2019-01-23T13:31:27.377Z,1.90
2019-01-23T13:34:01.019Z,1.80
2019-01-23T13:36:34.785Z,1.70
2019-01-23T13:39:08.535Z,1.70
2019-01-23T13:41:42.122Z,1.60
2019-01-23T13:44:15.671Z,1.50
2019-01-23T13:46:50.048Z,1.50
2019-01-23T13:49:23.633Z,1.50
2019-01-23T13:51:57.481Z,1.50
2019-01-23T13:54:31.061Z,1.50
2019-01-23T13:57:04.873Z,1.30
2019-01-23T13:59:40.352Z,1.40
2019-01-23T14:02:14.051Z,1.40
2019-01-23T14:04:47.853Z,1.40
2019-01-23T14:07:21.514Z,1.40
2019-01-23T14:09:55.338Z,1.40
2019-01-23T14:12:28.909Z,1.30
2019-01-23T14:15:02.656Z,1.30
2019-01-23T14:17:37.095Z,1.30
2019-01-23T14:20:10.916Z,1.20
2019-01-23T14:22:44.702Z,1.20
2019-01-23T14:25:18.502Z,1.10
2019-01-23T14:27:52.149Z,1.00
2019-01-23T14:30:29.007Z,1.00
2019-01-23T14:33:02.691Z,1.00
2019-01-23T14:35:37.093Z,0.80
2019-01-23T14:38:10.872Z,0.80
2019-01-23T14:40:44.515Z,0.90
2019-01-23T14:43:18.480Z,0.90
2019-01-23T14:45:52.293Z,0.90
2019-01-23T14:48:25.892Z,1.00
2019-01-23T14:50:59.504Z,1.00
2019-01-23T14:53:33.558Z,1.00
2019-01-23T14:56:07.152Z,1.00
2019-01-23T14:58:40.774Z,0.90
2019-01-23T15:01:15.323Z,0.90
2019-01-23T15:03:49.109Z,0.90
2019-01-23T15:06:22.746Z,0.90
2019-01-23T15:08:57.315Z,0.90
2019-01-23T15:11:30.866Z,0.90
2019-01-23T15:14:04.511Z,0.80
2019-01-23T15:16:38.250Z,0.80
2019-01-23T15:19:12.788Z,0.70
2019-01-23T15:21:46.506Z,0.70
2019-01-23T15:24:20.273Z,0.70
2019-01-23T15:26:54.084Z,0.70
2019-01-23T15:29:27.625Z,0.80
2019-01-23T15:32:01.422Z,0.80
2019-01-23T15:34:35.194Z,0.80
2019-01-23T15:37:08.825Z,0.80
2019-01-23T15:39:42.590Z,0.80
2019-01-23T15:42:16.212Z,0.80
2019-01-23T15:44:49.959Z,0.70
2019-01-23T15:47:23.634Z,0.70
2019-01-23T15:49:57.187Z,0.70
2019-01-23T15:52:30.917Z,0.70
2019-01-23T15:55:04.604Z,0.70
2019-01-23T15:57:38.127Z,0.70
2019-01-23T16:00:11.798Z,0.70
2019-01-23T16:02:45.363Z,0.60
2019-01-23T16:05:20.406Z,0.60
2019-01-23T16:07:54.011Z,0.60
2019-01-23T16:10:27.816Z,0.60
2019-01-23T16:13:03.020Z,0.60
2019-01-23T16:15:35.231Z,0.60
2019-01-23T16:18:09.049Z,0.70
2019-01-23T16:20:42.674Z,0.60
2019-01-23T16:23:17.203Z,0.70
2019-01-23T16:25:50.859Z,0.70
2019-01-23T16:28:24.663Z,0.70
2019-01-23T16:30:58.230Z,0.70
2019-01-23T16:33:31.968Z,0.70
2019-01-23T16:36:06.607Z,0.70
2019-01-23T16:38:40.219Z,0.70
2019-01-23T16:41:13.948Z,0.70
2019-01-23T16:43:47.608Z,0.70
2019-01-23T16:46:21.147Z,0.70
2019-01-23T16:48:55.620Z,0.60
2019-01-23T16:51:29.489Z,0.60
2019-01-23T16:54:03.219Z,0.60
2019-01-23T16:56:36.831Z,0.60
2019-01-23T16:59:10.395Z,0.60
2019-01-23T17:01:44.075Z,0.60
2019-01-23T17:04:17.721Z,0.60
2019-01-23T17:06:52.386Z,0.50
2019-01-23T17:09:26.017Z,0.50
2019-01-23T17:12:00.631Z,0.60
2019-01-23T17:14:34.256Z,0.60
2019-01-23T17:17:08.081Z,0.50
2019-01-23T17:19:41.841Z,0.40
2019-01-23T17:22:15.675Z,0.40
2019-01-23T17:24:49.242Z,0.40
2019-01-23T17:27:23.120Z,0.40
2019-01-23T17:29:57.009Z,0.50
2019-01-23T17:32:31.311Z,0.30
2019-01-23T17:35:04.991Z,0.30
2019-01-23T17:37:38.710Z,0.20
2019-01-23T17:40:12.429Z,0.20
2019-01-23T17:42:45.936Z,0.20
2019-01-23T17:45:24.441Z,0.10
2019-01-23T17:47:58.078Z,0.10
2019-01-23T17:50:31.676Z,0.10
2019-01-23T17:53:05.222Z,0.00
2019-01-23T17:55:39.008Z,0.10
2019-01-23T17:58:12.648Z,0.10
2019-01-23T18:00:47.160Z,0.00
2019-01-23T18:03:20.836Z,-0.10
2019-01-23T18:05:54.544Z,-0.10
2019-01-23T18:08:29.027Z,-0.20
2019-01-23T18:11:02.523Z,-0.20
2019-01-23T18:13:36.158Z,-0.10
2019-01-23T18:16:10.724Z,-0.10
2019-01-23T18:18:44.244Z,-0.10
2019-01-23T18:21:17.800Z,-0.10
2019-01-23T18:23:51.337Z,-0.20
2019-01-23T18:26:25.147Z,-0.20
2019-01-23T18:28:58.740Z,-0.20
2019-01-23T18:31:33.198Z,-0.30
2019-01-23T18:34:14.295Z,-0.30
2019-01-23T18:36:52.507Z,-0.20
2019-01-23T18:39:40.841Z,-0.20
2019-01-23T18:42:19.878Z,-0.20
2019-01-23T18:44:55.171Z,-0.20
2019-01-23T18:47:46.582Z,-0.30
2019-01-23T18:50:31.023Z,-0.30
2019-01-23T18:53:04.703Z,-0.30
2019-01-23T18:55:39.085Z,-0.30
2019-01-23T18:58:12.925Z,-0.30
2019-01-23T19:00:47.346Z,-0.30
2019-01-23T19:03:21.154Z,-0.40
2019-01-23T19:05:54.939Z,-0.40
2019-01-23T19:08:29.365Z,-0.50
2019-01-23T19:11:03.193Z,-0.50
2019-01-23T19:13:36.796Z,-0.50
2019-01-23T19:16:11.166Z,-0.40
2019-01-23T19:18:44.790Z,-0.50
2019-01-23T19:21:18.553Z,-0.50
2019-01-23T19:23:52.147Z,-0.50
2019-01-23T19:26:25.689Z,-0.50
2019-01-23T19:28:59.381Z,-0.50
2019-01-23T19:31:32.945Z,-0.50
2019-01-23T19:34:06.697Z,-0.50
2019-01-23T19:36:40.407Z,-0.50
2019-01-23T19:39:14.012Z,-0.50
2019-01-23T19:41:47.545Z,-0.50
2019-01-23T19:44:21.116Z,-0.50
2019-01-23T19:46:54.842Z,-0.50
2019-01-23T19:49:28.403Z,-0.50
2019-01-23T19:52:02.852Z,-0.70
2019-01-23T19:54:37.191Z,-0.70
2019-01-23T19:57:10.804Z,-0.70
2019-01-23T19:59:44.504Z,-0.70
2019-01-23T20:02:18.156Z,-0.60
2019-01-23T20:04:52.549Z,-0.60
2019-01-23T20:07:26.169Z,-0.60
2019-01-23T20:09:59.937Z,-0.70
2019-01-23T20:12:34.308Z,-0.60
2019-01-23T20:15:08.791Z,-0.60
2019-01-23T20:17:42.431Z,-0.60
2019-01-23T20:20:16.134Z,-0.60
2019-01-23T20:25:29.214Z,-0.50
2019-01-23T20:28:03.368Z,-0.60
2019-01-23T20:30:37.053Z,-0.60
2019-01-23T20:33:10.811Z,-0.60
2019-01-23T20:35:44.492Z,-0.70
2019-01-23T20:38:18.938Z,-0.70
2019-01-23T20:40:52.730Z,-0.70
2019-01-23T20:43:26.378Z,-0.70
2019-01-23T20:46:00.111Z,-0.60
2019-01-23T20:48:33.718Z,-0.70
2019-01-23T20:51:07.360Z,-0.80
2019-01-23T20:53:42.144Z,-1.00
2019-01-23T20:56:14.536Z,-1.00
2019-01-23T20:58:48.341Z,-1.10
2019-01-23T21:01:22.043Z,-1.10
2019-01-23T21:03:55.649Z,-1.10
2019-01-23T21:06:29.227Z,-1.10
2019-01-23T21:09:02.863Z,-1.10
2019-01-23T21:11:36.622Z,-1.20
2019-01-23T21:14:10.376Z,-1.10
2019-01-23T21:16:43.998Z,-1.10
2019-01-23T21:19:17.773Z,-1.10
2019-01-23T21:21:51.429Z,-1.20
2019-01-23T21:24:25.766Z,-1.10
2019-01-23T21:27:00.320Z,-1.10
2019-01-23T21:29:34.129Z,-1.10
2019-01-23T21:32:07.848Z,-1.20
2019-01-23T21:34:41.484Z,-1.20
2019-01-23T21:37:15.096Z,-1.20
2019-01-23T21:39:48.784Z,-1.30
2019-01-23T21:42:22.413Z,-1.20
2019-01-23T21:44:56.183Z,-1.20
2019-01-23T21:47:29.807Z,-1.20
2019-01-23T21:50:03.400Z,-1.20
2019-01-23T21:52:36.992Z,-1.20
2019-01-23T21:55:10.539Z,-1.20
2019-01-23T21:57:44.183Z,-1.20
2019-01-23T22:00:18.684Z,-1.20
2019-01-23T22:02:53.064Z,-1.30
2019-01-23T22:05:26.629Z,-1.30
2019-01-23T22:08:00.252Z,-1.20
2019-01-23T22:10:33.832Z,-1.30
2019-01-23T22:13:08.180Z,-1.30
2019-01-23T22:15:42.816Z,-1.30
2019-01-23T22:18:16.410Z,-1.30
2019-01-23T22:20:50.191Z,-1.30
2019-01-23T22:23:24.561Z,-1.30
2019-01-23T22:25:58.158Z,-1.30
2019-01-23T22:28:32.669Z,-1.30
2019-01-23T22:31:06.430Z,-1.30
2019-01-23T22:33:40.006Z,-1.30
2019-01-23T22:36:13.719Z,-1.30
2019-01-23T22:38:47.332Z,-1.30
2019-01-23T22:41:21.866Z,-1.20
2019-01-23T22:43:55.406Z,-1.20
2019-01-23T22:46:29.018Z,-1.30
2019-01-23T22:49:02.596Z,-1.30
2019-01-23T22:51:36.147Z,-1.40
2019-01-23T22:54:09.792Z,-1.40
2019-01-23T22:56:43.419Z,-1.50
2019-01-23T22:59:17.166Z,-1.50
2019-01-23T23:01:51.714Z,-1.60
2019-01-23T23:04:25.790Z,-1.60
2019-01-23T23:06:59.331Z,-1.70
2019-01-23T23:09:32.947Z,-1.70
2019-01-23T23:12:06.519Z,-1.70
2019-01-23T23:14:40.861Z,-1.80
2019-01-23T23:17:15.158Z,-1.80
2019-01-23T23:19:48.767Z,-1.80
2019-01-23T23:22:22.364Z,-1.80
2019-01-23T23:24:55.978Z,-1.80
2019-01-23T23:27:30.316Z,-1.80
2019-01-23T23:30:08.420Z,-1.80
2019-01-23T23:32:42.838Z,-1.80
2019-01-23T23:35:16.656Z,-1.80
2019-01-23T23:37:50.299Z,-1.80
2019-01-23T23:40:24.715Z,-1.80
2019-01-23T23:42:59.043Z,-1.80
2019-01-23T23:45:32.829Z,-1.80
2019-01-23T23:48:06.455Z,-1.70
2019-01-23T23:50:40.059Z,-1.70
2019-01-23T23:53:13.688Z,-1.70
2019-01-23T23:55:47.251Z,-1.80
2019-01-23T23:58:20.874Z,-1.80
